Time;durP1;ratioP1;P1;durP2;ratioP2;P2;SDS_P1;SDS_P2;PMS_P1;PMS_P2;Temp;Humidity;BMP_temperature;BMP_pressure;BME280_temperature;BME280_humidity;BME280_pressure;Samples;Min_cycle;Max_cycle;Signal;HPM_P1;HPM_P2
2023/07/24 00:02:14;;;;;;;4.32;1.65;;;;;;;;;;4958071;28;98180;-88
2023/07/24 00:04:51;;;;;;;3.05;1.50;;;;;;;;;;4968325;28;98941;-88
2023/07/24 00:07:20;;;;;;;3.75;1.60;;;;;;;;;;4958590;28;98072;-87
2023/07/24 00:09:55;;;;;;;3.67;1.67;;;;;;;;;;4964413;28;98301;-88
2023/07/24 00:12:32;;;;;;;3.45;1.58;;;;;;;;;;4957502;28;99135;-88
2023/07/24 00:15:03;;;;;;;;;;;;;;;;;;4941618;28;99096;-88
2023/07/24 00:17:39;;;;;;;2.75;1.55;;;;;;;;;;4958540;28;98642;-87
2023/07/24 00:20:07;;;;;;;4.28;1.70;;;;;;;;;;4960416;28;98606;-88
2023/07/24 00:22:41;;;;;;;4.35;1.63;;;;;;;;;;4963582;28;98719;-88
2023/07/24 00:25:09;;;;;;;4.00;1.80;;;;;;;;;;4952804;28;99067;-87
2023/07/24 00:27:37;;;;;;;3.60;1.50;;;;;;;;;;4957224;28;98998;-87
2023/07/24 00:30:08;;;;;;;3.17;1.50;;;;;;;;;;4961445;28;98451;-87
2023/07/24 00:32:41;;;;;;;3.22;1.60;;;;;;;;;;4952668;28;99775;-87
2023/07/24 00:35:08;;;;;;;;;;;;;;;;;;4958532;28;98489;-88
2023/07/24 00:37:36;;;;;;;3.15;1.60;;;;;;;;;;4936518;28;100121;-88
2023/07/24 00:40:04;;;;;;;3.50;1.80;;;;;;;;;;4953341;28;100025;-87
2023/07/24 00:42:32;;;;;;;3.58;1.80;;;;;;;;;;4957470;28;98476;-87
2023/07/24 00:44:59;;;;;;;4.30;1.80;;;;;;;;;;4944055;28;100603;-88
2023/07/24 00:47:31;;;;;;;4.10;1.75;;;;;;;;;;4944493;28;99080;-87
2023/07/24 00:49:59;;;;;;;4.15;1.70;;;;;;;;;;4953642;28;98234;-87
2023/07/24 00:52:27;;;;;;;3.92;1.73;;;;;;;;;;4945170;28;99051;-86
2023/07/24 00:54:54;;;;;;;3.28;1.60;;;;;;;;;;4961139;28;98174;-87
2023/07/24 00:57:25;;;;;;;3.58;1.50;;;;;;;;;;4960185;28;98966;-87
2023/07/24 00:59:54;;;;;;;3.75;1.60;;;;;;;;;;4957708;28;99566;-88
2023/07/24 01:02:23;;;;;;;3.78;1.70;;;;;;;;;;4960929;28;98333;-88
2023/07/24 01:04:51;;;;;;;3.92;1.88;;;;;;;;;;4951128;28;99042;-88
2023/07/24 01:07:20;;;;;;;3.47;1.80;;;;;;;;;;4943048;28;98605;-88
2023/07/24 01:09:47;;;;;;;2.92;1.45;;;;;;;;;;4960939;28;98726;-88
2023/07/24 01:12:19;;;;;;;4.10;1.85;;;;;;;;;;4960819;28;98845;-87
2023/07/24 01:14:53;;;;;;;3.58;1.60;;;;;;;;;;4959430;28;101473;-88
2023/07/24 01:17:24;;;;;;;3.85;1.90;;;;;;;;;;4960872;28;99134;-88
2023/07/24 01:19:55;;;;;;;3.67;1.70;;;;;;;;;;4954081;28;99941;-88
2023/07/24 01:22:25;;;;;;;3.05;1.52;;;;;;;;;;4961028;28;97342;-88
2023/07/24 01:25:12;;;;;;;4.10;1.90;;;;;;;;;;4942783;28;100230;-87
2023/07/24 01:27:44;;;;;;;3.85;1.50;;;;;;;;;;4959160;28;99053;-88
2023/07/24 01:30:13;;;;;;;3.90;1.85;;;;;;;;;;4960074;28;99023;-88
2023/07/24 01:32:40;;;;;;;3.55;1.80;;;;;;;;;;4955063;28;99224;-88
2023/07/24 01:35:08;;;;;;;3.22;1.60;;;;;;;;;;4960013;28;99102;-88
2023/07/24 01:37:42;;;;;;;3.80;1.75;;;;;;;;;;4963967;28;98536;-88
2023/07/24 01:40:10;;;;;;;4.35;1.83;;;;;;;;;;4959885;28;99083;-88
2023/07/24 01:42:38;;;;;;;3.58;1.80;;;;;;;;;;4960223;28;98332;-88
2023/07/24 01:45:12;;;;;;;3.60;1.60;;;;;;;;;;4943514;28;98301;-88
2023/07/24 01:47:40;;;;;;;3.33;1.50;;;;;;;;;;4960101;28;101246;-88
2023/07/24 01:50:07;;;;;;;;;;;;;;;;;;4933550;28;98572;-88
2023/07/24 01:52:37;;;;;;;3.83;1.80;;;;;;;;;;4960443;28;98191;-88
2023/07/24 01:55:05;;;;;;;4.15;2.00;;;;;;;;;;4959259;28;99825;-88
2023/07/24 01:57:33;;;;;;;3.85;1.98;;;;;;;;;;4942174;28;98348;-87
2023/07/24 02:00:00;;;;;;;3.80;1.90;;;;;;;;;;4945101;28;99711;-88
2023/07/24 02:02:30;;;;;;;3.80;1.90;;;;;;;;;;4959831;28;98161;-88
2023/07/24 02:04:58;;;;;;;3.63;1.80;;;;;;;;;;4970124;28;98739;-88
2023/07/24 02:07:26;;;;;;;3.40;1.70;;;;;;;;;;4959575;28;98705;-88
2023/07/24 02:09:54;;;;;;;3.40;1.83;;;;;;;;;;4959756;28;98134;-88
2023/07/24 02:12:21;;;;;;;;;;;;;;;;;;4959972;28;98204;-88
2023/07/24 02:14:51;;;;;;;3.80;1.83;;;;;;;;;;4945437;28;101473;-87
2023/07/24 02:17:19;;;;;;;3.30;1.77;;;;;;;;;;4951510;28;98884;-87
2023/07/24 02:19:46;;;;;;;3.75;1.60;;;;;;;;;;4969439;28;101014;-87
2023/07/24 02:22:15;;;;;;;3.50;1.90;;;;;;;;;;4962559;28;99145;-87
2023/07/24 02:24:44;;;;;;;3.70;1.80;;;;;;;;;;4959481;28;98219;-87
2023/07/24 02:27:18;;;;;;;4.25;2.00;;;;;;;;;;4941283;28;100337;-87
2023/07/24 02:29:46;;;;;;;3.25;1.80;;;;;;;;;;4952086;28;99390;-88
2023/07/24 02:32:13;;;;;;;3.67;1.88;;;;;;;;;;4941922;28;100239;-88
2023/07/24 02:34:41;;;;;;;4.05;1.90;;;;;;;;;;4958918;28;98602;-87
2023/07/24 02:37:09;;;;;;;3.22;1.65;;;;;;;;;;4960166;28;97793;-87
2023/07/24 02:39:51;;;;;;;3.45;1.98;;;;;;;;;;4959234;28;98251;-87
2023/07/24 02:42:20;;;;;;;3.15;1.73;;;;;;;;;;4944598;28;100204;-87
2023/07/24 02:44:50;;;;;;;3.50;1.60;;;;;;;;;;4959112;28;99061;-87
2023/07/24 02:47:17;;;;;;;3.60;1.77;;;;;;;;;;4958977;28;99172;-87
2023/07/24 02:49:47;;;;;;;;;;;;;;;;;;4963356;28;98171;-88
2023/07/24 02:52:15;;;;;;;3.50;1.80;;;;;;;;;;4960029;28;98127;-88
2023/07/24 02:54:45;;;;;;;3.72;1.88;;;;;;;;;;4958096;28;99094;-88
2023/07/24 02:57:13;;;;;;;3.67;1.73;;;;;;;;;;4964632;28;99348;-87
2023/07/24 02:59:41;;;;;;;2.90;1.80;;;;;;;;;;4959695;28;98616;-87
2023/07/24 03:02:08;;;;;;;3.10;1.50;;;;;;;;;;4942010;28;98801;-87
2023/07/24 03:04:35;;;;;;;2.92;1.60;;;;;;;;;;4972247;28;98590;-87
2023/07/24 03:07:07;;;;;;;3.45;1.70;;;;;;;;;;4941385;28;100343;-86
2023/07/24 03:09:35;;;;;;;3.28;1.67;;;;;;;;;;4958359;28;99291;-87
2023/07/24 03:12:02;;;;;;;3.40;1.60;;;;;;;;;;4957146;28;102061;-87
2023/07/24 03:14:39;;;;;;;3.15;1.60;;;;;;;;;;4958544;28;100693;-87
2023/07/24 03:17:07;;;;;;;3.47;1.70;;;;;;;;;;4941180;28;98192;-88
2023/07/24 03:19:35;;;;;;;3.08;1.70;;;;;;;;;;4968527;28;99033;-88
2023/07/24 03:22:02;;;;;;;;;;;;;;;;;;4959329;28;98768;-88
2023/07/24 03:24:29;;;;;;;2.92;1.70;;;;;;;;;;4943084;28;98800;-89
2023/07/24 03:26:56;;;;;;;3.78;1.73;;;;;;;;;;4962350;28;98414;-88
2023/07/24 03:29:24;;;;;;;3.30;1.70;;;;;;;;;;4958860;28;98284;-88
2023/07/24 03:31:53;;;;;;;2.70;1.42;;;;;;;;;;4957542;28;98455;-88
2023/07/24 03:34:20;;;;;;;4.35;1.70;;;;;;;;;;4955896;28;102239;-88
2023/07/24 03:36:53;;;;;;;3.17;1.58;;;;;;;;;;4941323;28;98314;-88
2023/07/24 03:39:19;;;;;;;3.22;1.73;;;;;;;;;;4953807;28;98378;-88
2023/07/24 03:41:47;;;;;;;3.08;1.55;;;;;;;;;;4935502;28;101513;-88
2023/07/24 03:44:16;;;;;;;;;;;;;;;;;;4958115;28;98282;-88
2023/07/24 03:46:48;;;;;;;3.65;1.73;;;;;;;;;;4947756;28;98355;-88
2023/07/24 03:49:15;;;;;;;3.20;1.58;;;;;;;;;;4949317;28;98844;-88
2023/07/24 03:51:42;;;;;;;2.78;1.55;;;;;;;;;;4967110;28;98809;-88
2023/07/24 03:54:10;;;;;;;2.47;1.38;;;;;;;;;;4946097;28;98768;-88
2023/07/24 03:56:37;;;;;;;3.17;1.70;;;;;;;;;;4941378;28;98398;-88
2023/07/24 03:59:05;;;;;;;3.25;1.58;;;;;;;;;;4957644;28;98951;-88
2023/07/24 04:01:32;;;;;;;2.92;1.50;;;;;;;;;;4957993;28;98577;-88
2023/07/24 04:04:00;;;;;;;2.85;1.42;;;;;;;;;;4958040;28;98195;-89
2023/07/24 04:06:27;;;;;;;2.55;1.58;;;;;;;;;;4950566;28;100745;-89
2023/07/24 04:08:54;;;;;;;2.80;1.60;;;;;;;;;;4957456;28;98579;-88
2023/07/24 04:11:21;;;;;;;3.38;1.67;;;;;;;;;;4961644;28;98775;-89
2023/07/24 04:13:48;;;;;;;3.92;1.67;;;;;;;;;;4957942;28;98566;-88
2023/07/24 04:16:18;;;;;;;2.88;1.60;;;;;;;;;;4962128;28;97703;-88
2023/07/24 04:18:45;;;;;;;4.10;1.77;;;;;;;;;;4961393;28;98284;-88
2023/07/24 04:21:12;;;;;;;3.50;1.50;;;;;;;;;;4971011;28;98615;-88
2023/07/24 04:23:39;;;;;;;3.45;1.60;;;;;;;;;;4960294;28;98848;-88
2023/07/24 04:26:09;;;;;;;3.75;1.63;;;;;;;;;;4943520;28;101960;-88
2023/07/24 04:28:36;;;;;;;2.70;1.40;;;;;;;;;;4942763;28;100709;-88
2023/07/24 04:31:08;;;;;;;3.20;1.60;;;;;;;;;;4961080;28;98172;-88
2023/07/24 04:33:38;;;;;;;4.28;1.67;;;;;;;;;;4954867;28;98504;-88
2023/07/24 04:36:09;;;;;;;3.35;1.70;;;;;;;;;;4944597;28;98427;-88
2023/07/24 04:38:36;;;;;;;3.45;1.80;;;;;;;;;;4960874;28;99204;-87
2023/07/24 04:41:03;;;;;;;;;;;;;;;;;;4961648;28;98864;-88
2023/07/24 04:43:31;;;;;;;3.08;1.60;;;;;;;;;;4960447;28;98542;-88
2023/07/24 04:45:58;;;;;;;;;;;;;;;;;;4943568;28;101067;-88
2023/07/24 04:48:26;;;;;;;2.80;1.52;;;;;;;;;;4960179;28;99217;-88
2023/07/24 04:50:53;;;;;;;;;;;;;;;;;;4960890;28;98208;-88
2023/07/24 04:53:20;;;;;;;3.22;1.60;;;;;;;;;;4964963;28;98358;-88
2023/07/24 04:55:47;;;;;;;3.00;1.50;;;;;;;;;;4960509;28;98126;-88
2023/07/24 04:58:15;;;;;;;2.63;1.50;;;;;;;;;;4960662;28;98637;-88
2023/07/24 05:00:42;;;;;;;3.03;1.60;;;;;;;;;;4960063;28;98737;-88
2023/07/24 05:03:11;;;;;;;2.88;1.63;;;;;;;;;;4943391;28;98838;-88
2023/07/24 05:05:38;;;;;;;3.45;1.45;;;;;;;;;;4975663;28;97865;-88
2023/07/24 05:08:10;;;;;;;3.00;1.50;;;;;;;;;;4960248;28;99140;-88
2023/07/24 05:10:37;;;;;;;;;;;;;;;;;;4960947;28;99033;-88
2023/07/24 05:13:04;;;;;;;3.60;1.52;;;;;;;;;;4959979;28;99048;-88
2023/07/24 05:15:31;;;;;;;2.85;1.50;;;;;;;;;;4963335;28;99417;-88
2023/07/24 05:17:58;;;;;;;2.63;1.60;;;;;;;;;;4961883;28;98700;-88
2023/07/24 05:20:26;;;;;;;4.55;1.67;;;;;;;;;;4948898;28;100140;-88
2023/07/24 05:22:54;;;;;;;3.63;1.60;;;;;;;;;;4963118;28;98626;-87
2023/07/24 05:25:21;;;;;;;;;;;;;;;;;;4960440;28;98988;-87
2023/07/24 05:27:53;;;;;;;3.17;1.77;;;;;;;;;;4960512;28;99107;-88
2023/07/24 05:30:23;;;;;;;3.65;1.73;;;;;;;;;;4960937;28;97679;-88
2023/07/24 05:32:53;;;;;;;3.88;1.75;;;;;;;;;;4950720;28;98141;-88
2023/07/24 05:35:23;;;;;;;3.63;1.80;;;;;;;;;;4961879;28;98163;-87
2023/07/24 05:37:50;;;;;;;3.88;1.70;;;;;;;;;;4944943;28;98997;-87
2023/07/24 05:40:20;;;;;;;2.97;1.58;;;;;;;;;;4959231;28;98688;-88
2023/07/24 05:42:48;;;;;;;2.90;1.70;;;;;;;;;;4960066;28;98673;-88
2023/07/24 05:45:19;;;;;;;3.25;1.80;;;;;;;;;;4960045;28;100156;-88
2023/07/24 05:47:47;;;;;;;4.63;1.92;;;;;;;;;;4949124;28;99020;-88
2023/07/24 05:50:17;;;;;;;4.45;1.90;;;;;;;;;;4960051;28;98419;-88
2023/07/24 05:52:47;;;;;;;4.78;2.35;;;;;;;;;;4942562;28;98498;-88
2023/07/24 05:55:14;;;;;;;3.63;1.83;;;;;;;;;;4959685;28;98372;-88
2023/07/24 05:57:48;;;;;;;3.78;1.88;;;;;;;;;;4958023;28;98365;-88
2023/07/24 06:00:16;;;;;;;3.95;1.90;;;;;;;;;;4962011;28;98298;-88
2023/07/24 06:02:44;;;;;;;3.90;2.00;;;;;;;;;;4958584;28;99138;-88
2023/07/24 06:05:13;;;;;;;4.78;1.92;;;;;;;;;;4967163;28;99861;-88
2023/07/24 06:07:42;;;;;;;;;;;;;;;;;;4943919;28;99042;-88
2023/07/24 06:10:19;;;;;;;4.03;1.83;;;;;;;;;;4961324;28;98574;-88
2023/07/24 06:12:49;;;;;;;4.53;2.00;;;;;;;;;;4929165;28;99695;-88
2023/07/24 06:15:19;;;;;;;3.95;1.88;;;;;;;;;;4939540;28;98590;-88
2023/07/24 06:17:48;;;;;;;4.32;2.00;;;;;;;;;;4939539;28;98655;-88
2023/07/24 06:20:23;;;;;;;4.93;1.90;;;;;;;;;;4946141;28;98250;-88
2023/07/24 06:22:55;;;;;;;3.53;1.90;;;;;;;;;;4945614;28;98539;-87
2023/07/24 06:25:34;;;;;;;4.30;1.98;;;;;;;;;;4923390;28;98720;-87
2023/07/24 06:28:10;;;;;;;4.45;1.95;;;;;;;;;;4937801;28;99253;-88
2023/07/24 06:30:44;;;;;;;4.60;2.05;;;;;;;;;;4939875;28;99292;-87
2023/07/24 06:33:21;;;;;;;4.28;2.20;;;;;;;;;;4930429;28;98479;-88
2023/07/24 06:35:52;;;;;;;5.13;2.28;;;;;;;;;;4905072;28;101423;-87
2023/07/24 06:38:26;;;;;;;5.25;2.10;;;;;;;;;;4936514;28;98493;-87
2023/07/24 06:41:15;;;;;;;5.35;2.10;;;;;;;;;;4939607;28;98989;-89
2023/07/24 06:43:59;;;;;;;6.22;2.53;;;;;;;;;;4936409;28;98553;-87
2023/07/24 06:46:32;;;;;;;5.30;2.40;;;;;;;;;;4942397;28;97427;-87
2023/07/24 06:49:07;;;;;;;5.97;2.60;;;;;;;;;;4939011;28;99284;-87
2023/07/24 06:51:40;;;;;;;5.40;2.42;;;;;;;;;;4939194;28;98291;-88
2023/07/24 06:54:17;;;;;;;7.53;2.47;;;;;;;;;;4921100;28;100153;-88
2023/07/24 06:56:53;;;;;;;5.13;2.55;;;;;;;;;;4936001;28;98683;-88
2023/07/24 06:59:28;;;;;;;5.60;2.40;;;;;;;;;;5032439;28;86690;-80
2023/07/24 07:01:55;;;;;;;5.65;2.40;;;;;;;;;;5030449;28;86879;-81
2023/07/24 07:04:21;;;;;;;5.15;2.40;;;;;;;;;;5029640;28;87073;-81
2023/07/24 07:06:48;;;;;;;6.18;2.40;;;;;;;;;;5020280;28;87212;-82
2023/07/24 07:09:15;;;;;;;6.40;2.38;;;;;;;;;;5021984;28;88780;-82
2023/07/24 07:11:43;;;;;;;8.13;2.97;;;;;;;;;;5022375;28;89184;-81
2023/07/24 07:14:09;;;;;;;6.28;2.35;;;;;;;;;;5027293;28;87590;-81
2023/07/24 07:16:36;;;;;;;5.97;2.58;;;;;;;;;;5016788;28;86480;-81
2023/07/24 07:19:02;;;;;;;5.38;2.45;;;;;;;;;;5032672;28;87414;-81
2023/07/24 07:21:29;;;;;;;5.40;2.47;;;;;;;;;;5013986;28;86556;-80
2023/07/24 07:23:55;;;;;;;6.03;2.35;;;;;;;;;;5020326;28;87115;-80
2023/07/24 07:26:22;;;;;;;5.25;2.25;;;;;;;;;;5017425;28;87187;-81
2023/07/24 07:28:49;;;;;;;5.60;2.35;;;;;;;;;;5030150;28;87249;-79
2023/07/24 07:31:15;;;;;;;6.10;2.50;;;;;;;;;;5030125;27;88596;-79
2023/07/24 07:33:42;;;;;;;5.93;2.30;;;;;;;;;;5017091;27;87258;-80
2023/07/24 07:36:08;;;;;;;5.32;2.53;;;;;;;;;;5013904;28;86708;-80
2023/07/24 07:38:35;;;;;;;6.22;2.35;;;;;;;;;;5012806;28;89813;-80
2023/07/24 07:41:05;;;;;;;5.85;2.50;;;;;;;;;;5024810;28;87812;-80
2023/07/24 07:43:32;;;;;;;6.13;2.63;;;;;;;;;;5027956;28;87156;-79
2023/07/24 07:45:59;;;;;;;6.72;2.78;;;;;;;;;;5029942;28;87190;-81
2023/07/24 07:48:25;;;;;;;6.07;2.50;;;;;;;;;;5029334;28;87458;-81
2023/07/24 07:50:52;;;;;;;5.45;2.60;;;;;;;;;;5029317;28;87906;-80
2023/07/24 07:53:19;;;;;;;5.68;2.67;;;;;;;;;;5029621;28;87459;-80
2023/07/24 07:55:45;;;;;;;5.45;2.50;;;;;;;;;;5018022;28;87901;-80
2023/07/24 07:58:12;;;;;;;5.68;2.58;;;;;;;;;;5018919;28;86986;-81
2023/07/24 08:00:39;;;;;;;5.03;2.28;;;;;;;;;;5029885;28;87231;-80
2023/07/24 08:03:06;;;;;;;5.70;2.67;;;;;;;;;;5032783;27;87238;-81
2023/07/24 08:05:33;;;;;;;6.25;2.63;;;;;;;;;;5018804;28;87517;-80
2023/07/24 08:07:59;;;;;;;6.53;2.60;;;;;;;;;;5020157;27;87352;-81
2023/07/24 08:10:26;;;;;;;5.53;2.35;;;;;;;;;;5017370;28;88138;-80
2023/07/24 08:12:53;;;;;;;5.82;2.60;;;;;;;;;;5024247;28;86925;-80
2023/07/24 08:15:19;;;;;;;4.55;2.30;;;;;;;;;;5026030;28;86434;-80
2023/07/24 08:17:46;;;;;;;5.68;2.63;;;;;;;;;;5007650;28;88994;-81
2023/07/24 08:20:12;;;;;;;6.47;2.50;;;;;;;;;;5011424;28;86959;-80
2023/07/24 08:22:39;;;;;;;5.90;2.40;;;;;;;;;;4996527;28;87195;-81
2023/07/24 08:25:06;;;;;;;6.45;2.75;;;;;;;;;;5002089;28;87260;-81
2023/07/24 08:27:33;;;;;;;5.72;2.63;;;;;;;;;;5002081;28;87412;-81
2023/07/24 08:30:11;;;;;;;5.65;2.45;;;;;;;;;;5001890;28;87100;-81
2023/07/24 08:32:39;;;;;;;6.57;2.78;;;;;;;;;;5014572;28;87267;-80
2023/07/24 08:35:06;;;;;;;6.32;2.80;;;;;;;;;;5009760;28;86798;-81
2023/07/24 08:37:32;;;;;;;5.60;2.75;;;;;;;;;;5013085;28;87408;-80
2023/07/24 08:39:59;;;;;;;5.55;2.85;;;;;;;;;;5015867;28;87246;-80
2023/07/24 08:42:26;;;;;;;5.63;2.85;;;;;;;;;;5015979;28;87504;-82
2023/07/24 08:44:52;;;;;;;6.15;2.63;;;;;;;;;;5015808;28;86941;-80
2023/07/24 08:47:19;;;;;;;5.95;2.80;;;;;;;;;;5017901;28;88019;-80
2023/07/24 08:49:47;;;;;;;6.47;2.63;;;;;;;;;;5010595;28;88778;-81
2023/07/24 08:52:13;;;;;;;;;;;;;;;;;;5015241;28;87343;-81
2023/07/24 08:54:54;;;;;;;6.22;2.70;;;;;;;;;;5012421;28;87078;-81
2023/07/24 08:57:21;;;;;;;6.72;2.97;;;;;;;;;;5011991;28;87088;-81
2023/07/24 08:59:47;;;;;;;5.72;2.67;;;;;;;;;;5015226;28;87577;-81
2023/07/24 09:02:14;;;;;;;5.50;2.65;;;;;;;;;;5014967;28;87791;-80
2023/07/24 09:04:40;;;;;;;6.25;2.80;;;;;;;;;;4995069;28;87284;-81
2023/07/24 09:07:07;;;;;;;6.65;3.03;;;;;;;;;;5008298;28;87835;-81
2023/07/24 09:09:33;;;;;;;6.40;2.80;;;;;;;;;;5010281;28;86912;-81
2023/07/24 09:12:00;;;;;;;5.35;2.60;;;;;;;;;;5002371;28;86659;-81
2023/07/24 09:14:30;;;;;;;6.85;2.80;;;;;;;;;;5013508;28;87818;-81
2023/07/24 09:17:02;;;;;;;5.18;2.78;;;;;;;;;;5009958;28;87094;-81
2023/07/24 09:19:29;;;;;;;7.22;2.80;;;;;;;;;;5011479;28;87047;-80
2023/07/24 09:21:55;;;;;;;5.97;2.60;;;;;;;;;;5001508;28;87714;-81
2023/07/24 09:24:22;;;;;;;6.00;2.80;;;;;;;;;;5007984;28;87445;-80
2023/07/24 09:26:49;;;;;;;6.38;2.97;;;;;;;;;;5014274;28;86647;-81
2023/07/24 09:29:16;;;;;;;7.18;3.03;;;;;;;;;;5017232;28;87409;-80
2023/07/24 09:31:43;;;;;;;5.32;2.70;;;;;;;;;;5001517;28;89268;-80
2023/07/24 09:34:17;;;;;;;5.65;2.65;;;;;;;;;;4999031;28;87974;-81
2023/07/24 09:36:44;;;;;;;5.57;2.88;;;;;;;;;;5003174;28;87175;-81
2023/07/24 09:39:11;;;;;;;;;;;;;;;;;;5013284;28;90456;-81
2023/07/24 09:41:39;;;;;;;7.40;3.10;;;;;;;;;;5016053;28;107679;-81
2023/07/24 09:44:07;;;;;;;6.28;2.88;;;;;;;;;;5013957;28;86759;-81
2023/07/24 09:46:34;;;;;;;5.60;2.63;;;;;;;;;;5008397;28;87407;-81
2023/07/24 09:49:13;;;;;;;5.65;2.55;;;;;;;;;;5013966;28;87779;-81
2023/07/24 09:51:45;;;;;;;5.93;2.83;;;;;;;;;;5017192;28;87244;-81
2023/07/24 09:54:23;;;;;;;6.47;2.72;;;;;;;;;;5015077;28;87393;-80
2023/07/24 09:56:51;;;;;;;5.82;2.78;;;;;;;;;;5009550;28;87744;-81
2023/07/24 09:59:32;;;;;;;6.78;2.90;;;;;;;;;;5013541;28;87523;-80
2023/07/24 10:01:59;;;;;;;5.68;2.60;;;;;;;;;;5012743;28;87081;-79
2023/07/24 10:04:26;;;;;;;6.25;2.88;;;;;;;;;;5013523;28;86667;-81
2023/07/24 10:06:53;;;;;;;5.35;2.55;;;;;;;;;;5006952;28;87171;-80
2023/07/24 10:09:22;;;;;;;6.72;2.80;;;;;;;;;;5009286;28;87316;-80
2023/07/24 10:11:49;;;;;;;6.07;2.72;;;;;;;;;;5016077;28;86710;-81
2023/07/24 10:14:16;;;;;;;6.30;2.85;;;;;;;;;;5006412;28;86577;-81
2023/07/24 10:16:44;;;;;;;5.25;2.72;;;;;;;;;;5024533;28;86721;-81
2023/07/24 10:19:15;;;;;;;6.10;2.88;;;;;;;;;;5028381;28;87150;-80
2023/07/24 10:21:47;;;;;;;6.32;2.90;;;;;;;;;;5016938;28;88887;-80
2023/07/24 10:24:14;;;;;;;6.20;2.70;;;;;;;;;;5026922;28;87143;-81
2023/07/24 10:26:57;;;;;;;6.00;2.83;;;;;;;;;;5019685;28;87910;-81
2023/07/24 10:29:26;;;;;;;5.47;2.78;;;;;;;;;;4996763;28;87452;-80
2023/07/24 10:31:55;;;;;;;6.43;2.85;;;;;;;;;;5009037;28;86693;-80
2023/07/24 10:34:27;;;;;;;6.07;2.63;;;;;;;;;;5009670;28;87064;-80
2023/07/24 10:37:01;;;;;;;5.93;2.60;;;;;;;;;;5002508;28;87787;-80
2023/07/24 10:39:37;;;;;;;6.13;3.05;;;;;;;;;;5014987;28;87242;-80
2023/07/24 10:42:10;;;;;;;6.50;3.00;;;;;;;;;;4999527;28;87344;-80
2023/07/24 10:44:37;;;;;;;5.35;2.45;;;;;;;;;;5013996;28;86589;-81
2023/07/24 10:47:04;;;;;;;5.43;2.80;;;;;;;;;;5012545;28;87252;-80
2023/07/24 10:49:30;;;;;;;7.07;2.83;;;;;;;;;;5005805;28;86676;-81
2023/07/24 10:52:00;;;;;;;6.13;2.80;;;;;;;;;;5008195;28;86934;-80
2023/07/24 10:54:26;;;;;;;5.95;2.83;;;;;;;;;;5011528;28;89746;-80
2023/07/24 10:57:00;;;;;;;5.20;2.50;;;;;;;;;;5011952;28;87415;-80
2023/07/24 10:59:37;;;;;;;7.05;3.00;;;;;;;;;;5015165;28;90183;-80
2023/07/24 11:02:04;;;;;;;6.30;3.05;;;;;;;;;;5016606;28;87480;-80
2023/07/24 11:04:32;;;;;;;7.10;2.88;;;;;;;;;;5015196;28;88924;-80
2023/07/24 11:07:00;;;;;;;5.45;2.80;;;;;;;;;;5003126;28;88840;-80
2023/07/24 11:09:36;;;;;;;6.00;2.55;;;;;;;;;;5001027;28;90145;-80
2023/07/24 11:12:10;;;;;;;5.22;2.70;;;;;;;;;;5003680;28;89561;-80
2023/07/24 11:14:46;;;;;;;6.40;2.97;;;;;;;;;;4998309;28;88976;-79
2023/07/24 11:17:12;;;;;;;5.25;2.70;;;;;;;;;;5006661;28;88840;-81
2023/07/24 11:19:39;;;;;;;6.55;2.90;;;;;;;;;;5012637;28;89294;-81
2023/07/24 11:22:06;;;;;;;5.80;2.63;;;;;;;;;;5002616;28;88100;-82
2023/07/24 11:24:41;;;;;;;6.07;2.83;;;;;;;;;;4996183;28;91379;-81
2023/07/24 11:27:09;;;;;;;7.00;2.70;;;;;;;;;;5011348;28;89554;-81
2023/07/24 11:29:36;;;;;;;5.45;2.50;;;;;;;;;;4993950;28;90148;-82
2023/07/24 11:32:02;;;;;;;;;;;;;;;;;;5006374;28;88410;-81
2023/07/24 11:34:29;;;;;;;5.47;2.90;;;;;;;;;;4996254;28;109562;-81
2023/07/24 11:36:55;;;;;;;6.30;2.80;;;;;;;;;;4983342;28;88513;-81
2023/07/24 11:39:22;;;;;;;5.40;2.50;;;;;;;;;;5001091;28;88719;-81
2023/07/24 11:41:49;;;;;;;5.20;2.58;;;;;;;;;;5014460;28;90106;-81
2023/07/24 11:44:17;;;;;;;7.03;2.53;;;;;;;;;;5010822;28;89775;-81
2023/07/24 11:46:43;;;;;;;5.80;2.72;;;;;;;;;;5013952;28;88711;-80
2023/07/24 11:49:14;;;;;;;7.05;2.70;;;;;;;;;;5001434;28;88439;-81
2023/07/24 11:51:41;;;;;;;5.47;2.80;;;;;;;;;;5009713;28;89541;-81
2023/07/24 11:54:08;;;;;;;5.57;2.83;;;;;;;;;;5000485;28;88618;-81
2023/07/24 11:56:35;;;;;;;6.18;2.97;;;;;;;;;;5008464;28;88569;-80
2023/07/24 11:59:14;;;;;;;6.25;2.97;;;;;;;;;;5006879;28;88770;-81
2023/07/24 12:01:41;;;;;;;6.15;2.80;;;;;;;;;;5022750;28;89047;-81
2023/07/24 12:04:07;;;;;;;6.13;3.10;;;;;;;;;;5023227;28;87972;-81
2023/07/24 12:06:34;;;;;;;6.75;3.15;;;;;;;;;;5012538;28;89478;-80
2023/07/24 12:09:02;;;;;;;5.60;3.03;;;;;;;;;;5018989;28;88008;-81
2023/07/24 12:11:30;;;;;;;6.78;3.00;;;;;;;;;;5029709;28;87331;-81
2023/07/24 12:13:57;;;;;;;5.70;2.80;;;;;;;;;;5020430;28;89340;-81
2023/07/24 12:16:24;;;;;;;6.05;2.85;;;;;;;;;;5031745;28;88041;-80
2023/07/24 12:18:50;;;;;;;5.72;2.85;;;;;;;;;;5010694;28;87558;-80
2023/07/24 12:21:17;;;;;;;5.47;2.78;;;;;;;;;;5011995;28;87693;-80
2023/07/24 12:23:43;;;;;;;5.90;2.97;;;;;;;;;;5032924;28;87012;-81
2023/07/24 12:26:10;;;;;;;5.47;2.70;;;;;;;;;;5021268;28;87944;-81
2023/07/24 12:28:36;;;;;;;5.85;2.40;;;;;;;;;;5017681;28;87946;-81
2023/07/24 12:31:04;;;;;;;4.65;2.40;;;;;;;;;;5026126;28;88925;-80
2023/07/24 12:33:30;;;;;;;5.43;2.60;;;;;;;;;;5017633;28;88065;-81
2023/07/24 12:35:57;;;;;;;5.57;2.78;;;;;;;;;;5004627;28;88003;-81
2023/07/24 12:38:23;;;;;;;5.57;2.55;;;;;;;;;;5011377;28;88680;-81
2023/07/24 12:40:50;;;;;;;5.40;2.55;;;;;;;;;;5013744;28;88975;-81
2023/07/24 12:43:17;;;;;;;5.25;2.75;;;;;;;;;;5014502;28;87965;-82
2023/07/24 12:45:43;;;;;;;5.72;2.88;;;;;;;;;;5001034;28;89429;-82
2023/07/24 12:48:10;;;;;;;4.57;2.50;;;;;;;;;;5008176;28;87373;-82
2023/07/24 12:50:37;;;;;;;5.35;2.70;;;;;;;;;;5011696;28;87929;-81
2023/07/24 12:53:03;;;;;;;5.00;2.53;;;;;;;;;;5005716;28;88096;-81
2023/07/24 12:55:36;;;;;;;5.90;2.63;;;;;;;;;;5000856;28;89281;-82
2023/07/24 12:58:04;;;;;;;6.07;2.72;;;;;;;;;;5015062;28;89288;-82
2023/07/24 13:00:31;;;;;;;5.45;2.72;;;;;;;;;;5014938;28;88654;-82
2023/07/24 13:02:58;;;;;;;5.90;2.60;;;;;;;;;;5008472;28;88014;-82
2023/07/24 13:05:25;;;;;;;6.78;2.67;;;;;;;;;;5005177;28;88386;-81
2023/07/24 13:07:51;;;;;;;5.15;2.50;;;;;;;;;;5013979;28;89531;-82
2023/07/24 13:10:18;;;;;;;5.32;2.78;;;;;;;;;;5001855;28;87990;-82
2023/07/24 13:12:45;;;;;;;5.40;2.40;;;;;;;;;;5012492;28;88404;-82
2023/07/24 13:15:11;;;;;;;5.82;2.72;;;;;;;;;;5014361;28;88090;-81
2023/07/24 13:17:38;;;;;;;6.25;2.95;;;;;;;;;;4996845;28;88444;-81
2023/07/24 13:20:05;;;;;;;5.35;2.60;;;;;;;;;;5009209;28;89358;-82
2023/07/24 13:22:31;;;;;;;6.15;2.70;;;;;;;;;;5009404;28;88095;-82
2023/07/24 13:24:58;;;;;;;5.32;2.80;;;;;;;;;;5012868;28;89079;-81
2023/07/24 13:27:24;;;;;;;6.22;2.78;;;;;;;;;;5016879;28;88049;-82
2023/07/24 13:29:51;;;;;;;6.28;2.58;;;;;;;;;;5012024;28;88329;-81
2023/07/24 13:32:17;;;;;;;5.80;2.72;;;;;;;;;;4995339;28;88743;-81
2023/07/24 13:34:44;;;;;;;6.65;2.88;;;;;;;;;;4998288;28;88018;-82
2023/07/24 13:37:11;;;;;;;5.32;2.67;;;;;;;;;;5003089;28;88488;-81
2023/07/24 13:39:37;;;;;;;5.13;2.70;;;;;;;;;;5013784;28;88357;-81
2023/07/24 13:42:04;;;;;;;4.88;2.60;;;;;;;;;;5013140;28;88153;-81
2023/07/24 13:44:30;;;;;;;6.20;2.70;;;;;;;;;;5001877;28;89865;-81
2023/07/24 13:46:57;;;;;;;5.50;2.78;;;;;;;;;;5008075;28;87968;-81
2023/07/24 13:49:24;;;;;;;5.30;2.78;;;;;;;;;;5013227;28;88435;-81
2023/07/24 13:51:50;;;;;;;5.93;3.05;;;;;;;;;;5014116;28;88656;-80
2023/07/24 13:54:17;;;;;;;6.50;3.20;;;;;;;;;;5012059;28;88603;-80
2023/07/24 13:56:43;;;;;;;5.63;2.88;;;;;;;;;;5005450;28;88594;-80
2023/07/24 13:59:10;;;;;;;5.95;2.80;;;;;;;;;;4999248;28;88883;-80
2023/07/24 14:01:36;;;;;;;7.05;3.00;;;;;;;;;;5003671;28;87482;-80
2023/07/24 14:04:03;;;;;;;6.18;2.85;;;;;;;;;;5009241;28;90286;-80
2023/07/24 14:06:30;;;;;;;5.47;2.70;;;;;;;;;;5000796;28;89586;-80
2023/07/24 14:08:56;;;;;;;6.38;3.00;;;;;;;;;;5006634;28;88791;-80
2023/07/24 14:11:24;;;;;;;6.35;2.92;;;;;;;;;;5013352;28;89311;-80
2023/07/24 14:13:51;;;;;;;5.55;2.63;;;;;;;;;;5001991;28;87962;-80
2023/07/24 14:16:17;;;;;;;6.30;2.88;;;;;;;;;;4997955;28;88508;-80
2023/07/24 14:18:44;;;;;;;5.25;3.00;;;;;;;;;;5013755;28;88824;-80
2023/07/24 14:21:11;;;;;;;4.93;2.65;;;;;;;;;;5001178;28;90204;-80
2023/07/24 14:23:37;;;;;;;5.35;2.85;;;;;;;;;;5012821;28;87977;-80
2023/07/24 14:26:04;;;;;;;7.07;3.03;;;;;;;;;;4998757;28;87915;-80
2023/07/24 14:28:30;;;;;;;6.20;2.88;;;;;;;;;;5013984;28;88106;-80
2023/07/24 14:30:57;;;;;;;5.28;2.80;;;;;;;;;;4998612;28;89016;-81
2023/07/24 14:33:23;;;;;;;6.57;3.03;;;;;;;;;;4999381;28;88850;-81
2023/07/24 14:35:50;;;;;;;6.80;3.25;;;;;;;;;;5000042;28;88146;-81
2023/07/24 14:38:16;;;;;;;5.68;2.72;;;;;;;;;;5012784;28;89667;-81
2023/07/24 14:40:43;;;;;;;6.90;3.10;;;;;;;;;;5014427;28;88651;-81
2023/07/24 14:43:10;;;;;;;5.03;2.55;;;;;;;;;;5003298;28;88713;-81
2023/07/24 14:45:36;;;;;;;5.30;2.70;;;;;;;;;;5012390;28;88690;-81
2023/07/24 14:48:03;;;;;;;5.25;2.53;;;;;;;;;;5013298;28;88462;-81
2023/07/24 14:50:30;;;;;;;4.82;2.58;;;;;;;;;;5012812;28;88306;-81
2023/07/24 14:52:56;;;;;;;5.78;2.95;;;;;;;;;;5012539;28;89285;-81
2023/07/24 14:55:22;;;;;;;5.82;2.90;;;;;;;;;;4999819;28;88113;-80
2023/07/24 14:57:49;;;;;;;6.82;2.90;;;;;;;;;;5012965;28;88893;-83